Grand Strand Airport
KCRE : now visible

Airfield :











YOU CAN JOIN US ON...

 
LOGIN :

Register | Disclaimer

   EN    FR    IT 

 









Legend :    VFR   Marginal VFR   IFR   Intensive IFR   Very Intensive IFR
Visi :
Ceiling :
>= 8 km
>= 3000ft
5 to 8 km
1000 to 3000 ft
1500m to 5 km
500 to 1000 ft
800 to 1500m
200 to 500 ft
< 800m
< 200 ft
Symbols :   Thunderstorms  Fog  Heavy snow  Heavy precipitations  Wind > 20 kt







- Airport Elevation : 32 ft


KCRE - Grand Strand

CURRENT METAR :
  • 160553Z AUTO 02005KT 10SM CLR 24/23 A3002 RMK AO1 SLP166 T02390228 10278 20239 55007

EXPIRED METARs :
  • 160453Z AUTO 05005KT 10SM CLR 24/23 A3002 RMK AO1 SLP165 T02390228 403060228
  • 160353Z AUTO 03005KT 10SM CLR 24/23 A3002 RMK AO1 SLP167 T02440228

TAF KCRE
Valid from the 16 at 06:00 until the 17 at 06:00 UTC


160524Z 1606/1706 04006KT P6SM FEW250
FM160800 03006KT P6SM FEW008
FM161100 03007KT P6SM SCT008
TEMPO 1611/1613 BKN008
FM161400 03009KT P6SM FEW015
FM161900 06010KT P6SM FEW030
No reported NOTAMs for that airfield.



MET'MAP, your aeronautical weather chart ! - Copyright ORBIFLY December 2007 - Disclaimer

ORBIFLY MET'MAP TEAM :

Programming & Development : Alexandra Zaïnal
Concept & Development : Baudouin d'Aumeries
Co-Development & Prog : Marc-Olivier Méhu
Technical & hardware support : Manuel Goepfert

Contact : metmap@orbifly.com




SOURCES & CREDITS :

   NOAA       Earth
Advisory